createdAt,value
2023-04-23T00:37:39.375Z,100202.41
2023-04-23T00:40:42.102Z,100215.34
2023-04-23T00:43:45.888Z,100200.00
2023-04-23T00:46:48.894Z,100186.31
2023-04-23T00:49:53.192Z,100192.22
2023-04-23T00:52:55.829Z,100199.66
2023-04-23T00:55:58.819Z,100195.84
2023-04-23T00:59:03.387Z,100197.75
2023-04-23T01:02:05.911Z,100200.84
2023-04-23T01:05:10.644Z,100199.00
2023-04-23T01:08:16.559Z,100204.34
2023-04-23T01:11:19.716Z,100189.87
2023-04-23T01:14:22.085Z,100190.75
2023-04-23T01:17:26.854Z,100182.41
2023-04-23T01:20:29.251Z,100200.47
2023-04-23T01:23:32.805Z,100192.81
2023-04-23T01:26:35.535Z,100183.34
2023-04-23T01:29:39.411Z,100191.66
2023-04-23T01:32:42.444Z,100192.66
2023-04-23T01:35:45.629Z,100197.75
2023-04-23T01:38:48.086Z,100186.47
2023-04-23T01:41:51.112Z,100176.28
2023-04-23T01:44:53.611Z,100190.28
2023-04-23T01:47:56.478Z,100169.34
2023-04-23T01:50:59.756Z,100193.06
2023-04-23T01:54:02.362Z,100193.28
2023-04-23T01:57:04.880Z,100177.66
2023-04-23T02:00:11.407Z,100169.94
2023-04-23T02:03:14.111Z,100170.22
2023-04-23T02:06:17.795Z,100178.47
2023-04-23T02:09:20.329Z,100185.00
2023-04-23T02:12:22.983Z,100173.06
2023-04-23T02:15:25.659Z,100190.19
2023-04-23T02:18:28.881Z,100190.94
2023-04-23T02:21:31.662Z,100172.50
2023-04-23T02:24:34.085Z,100183.97
2023-04-23T02:27:37.025Z,100177.69
2023-04-23T02:30:45.279Z,100182.87
2023-04-23T02:33:48.137Z,100182.97
2023-04-23T02:36:51.115Z,100181.22
2023-04-23T02:39:54.107Z,100167.94
2023-04-23T02:42:56.407Z,100179.19
2023-04-23T02:45:59.083Z,100182.03
2023-04-23T02:49:01.456Z,100159.06
2023-04-23T02:52:04.319Z,100175.75
2023-04-23T02:55:07.426Z,100175.13
2023-04-23T02:58:10.346Z,100169.25
2023-04-23T03:01:13.512Z,100153.94
2023-04-23T03:04:16.643Z,100173.31
2023-04-23T03:07:19.047Z,100173.59
2023-04-23T03:10:21.844Z,100160.59
2023-04-23T03:13:25.174Z,100166.69
2023-04-23T03:16:29.126Z,100168.44
2023-04-23T03:19:31.570Z,100164.53
2023-04-23T03:22:34.663Z,100170.50
2023-04-23T03:25:37.268Z,100145.75
2023-04-23T03:28:39.976Z,100163.09
2023-04-23T03:31:42.365Z,100149.78
2023-04-23T03:34:45.358Z,100167.41
2023-04-23T03:37:47.753Z,100170.72
2023-04-23T03:40:51.298Z,100171.22
2023-04-23T03:43:53.849Z,100175.16
2023-04-23T03:46:56.721Z,100159.19
2023-04-23T03:49:59.175Z,100157.09
2023-04-23T03:53:02.109Z,100169.59
2023-04-23T03:56:06.144Z,100178.16
2023-04-23T03:59:10.940Z,100181.31
2023-04-23T04:02:13.439Z,100175.03
2023-04-23T04:05:16.906Z,100183.06
2023-04-23T04:08:20.909Z,100177.94
2023-04-23T04:11:23.533Z,100180.19
2023-04-23T04:14:26.079Z,100195.34
2023-04-23T04:17:28.734Z,100169.06
2023-04-23T04:20:31.161Z,100171.63
2023-04-23T04:23:35.007Z,100190.91
2023-04-23T04:26:37.484Z,100193.06
2023-04-23T04:29:40.950Z,100203.37
2023-04-23T04:32:45.677Z,100182.66
2023-04-23T04:35:49.679Z,100191.72
2023-04-23T04:38:51.953Z,100193.37
2023-04-23T04:41:54.587Z,100207.63
2023-04-23T04:44:59.616Z,100187.00
2023-04-23T04:48:02.317Z,100185.53
2023-04-23T04:51:04.803Z,100198.00
2023-04-23T04:54:08.153Z,100209.69
2023-04-23T04:57:10.990Z,100199.38
2023-04-23T05:00:24.768Z,100212.12
2023-04-23T05:03:27.450Z,100195.94
2023-04-23T05:06:31.203Z,100210.28
2023-04-23T05:09:33.786Z,100203.69
2023-04-23T05:12:37.241Z,100221.22
2023-04-23T05:15:39.582Z,100197.31
2023-04-23T05:18:42.407Z,100219.16
2023-04-23T05:21:44.840Z,100211.66
2023-04-23T05:24:47.481Z,100222.56
2023-04-23T05:27:49.904Z,100213.00
2023-04-23T05:30:52.651Z,100223.28
2023-04-23T05:33:54.948Z,100216.78
2023-04-23T05:36:57.577Z,100223.25
2023-04-23T05:40:00.123Z,100223.34
2023-04-23T05:43:02.911Z,100215.91
2023-04-23T05:46:07.300Z,100204.25
2023-04-23T05:49:10.349Z,100212.38
2023-04-23T05:52:13.026Z,100203.37
2023-04-23T05:55:20.541Z,100214.72
2023-04-23T05:58:23.594Z,100217.63
2023-04-23T06:01:26.292Z,100224.06
2023-04-23T06:04:29.125Z,100224.09
2023-04-23T06:07:32.546Z,100218.91
2023-04-23T06:10:35.205Z,100221.56
2023-04-23T06:13:42.839Z,100208.72
2023-04-23T06:16:46.580Z,100208.22
2023-04-23T06:19:49.085Z,100225.78
2023-04-23T06:22:51.697Z,100226.09
2023-04-23T06:25:54.076Z,100227.69
2023-04-23T06:28:56.741Z,100226.66
2023-04-23T06:32:03.567Z,100225.91
2023-04-23T06:35:07.568Z,100217.09
2023-04-23T06:38:10.633Z,100229.91
2023-04-23T06:41:13.346Z,100229.78
2023-04-23T06:44:15.988Z,100227.53
2023-04-23T06:47:20.234Z,100232.69
2023-04-23T06:50:22.671Z,100228.50
2023-04-23T06:53:25.290Z,100233.06
2023-04-23T06:56:27.596Z,100230.75
2023-04-23T06:59:30.283Z,100227.28
2023-04-23T07:02:32.980Z,100215.69
2023-04-23T07:05:36.102Z,100216.13
2023-04-23T07:08:39.759Z,100223.56
2023-04-23T07:11:42.451Z,100220.50
2023-04-23T07:14:44.898Z,100222.09
2023-04-23T07:17:47.574Z,100209.53
2023-04-23T07:20:49.950Z,100225.50
2023-04-23T07:23:52.733Z,100223.25
2023-04-23T07:26:55.629Z,100204.41
2023-04-23T07:29:58.375Z,100200.84
2023-04-23T07:33:01.061Z,100213.75
2023-04-23T07:36:04.168Z,100207.09
2023-04-23T07:39:06.836Z,100209.25
2023-04-23T07:42:09.595Z,100211.88
2023-04-23T07:45:12.273Z,100198.16
2023-04-23T07:48:15.849Z,100202.87
2023-04-23T07:51:18.279Z,100209.91
2023-04-23T07:54:20.989Z,100212.53
2023-04-23T07:57:23.473Z,100207.75
2023-04-23T08:00:26.113Z,100202.13
2023-04-23T08:03:29.347Z,100187.50
2023-04-23T08:06:35.111Z,100202.38
2023-04-23T08:09:37.738Z,100189.41
2023-04-23T08:12:40.159Z,100201.28
2023-04-23T08:15:42.856Z,100196.47
2023-04-23T08:18:54.498Z,100209.41
2023-04-23T08:22:07.178Z,100203.78
2023-04-23T08:25:10.145Z,100190.59
2023-04-23T08:28:12.779Z,100195.31
2023-04-23T08:31:25.560Z,100188.31
2023-04-23T08:34:29.430Z,100193.25
2023-04-23T08:37:31.869Z,100195.34
2023-04-23T08:40:37.759Z,100178.91
2023-04-23T08:44:04.415Z,100186.19
2023-04-23T08:47:09.229Z,100189.69
2023-04-23T08:50:13.236Z,100177.75
2023-04-23T08:53:20.000Z,100181.41
2023-04-23T08:56:24.300Z,100177.50
2023-04-23T08:59:30.745Z,100167.69
2023-04-23T09:02:35.092Z,100167.28
2023-04-23T09:05:38.029Z,100166.19
2023-04-23T09:08:40.666Z,100175.56
2023-04-23T09:11:43.481Z,100175.34
2023-04-23T09:14:45.989Z,100173.56
2023-04-23T09:17:50.003Z,100174.94
2023-04-23T09:20:53.686Z,100166.47
2023-04-23T09:23:56.404Z,100149.69
2023-04-23T09:26:59.087Z,100161.28
2023-04-23T09:30:05.014Z,100151.50
2023-04-23T09:33:07.554Z,100144.84
2023-04-23T09:36:13.908Z,100146.28
2023-04-23T09:39:25.974Z,100135.28
2023-04-23T09:42:28.871Z,100141.25
2023-04-23T09:45:32.817Z,100151.72
2023-04-23T09:48:43.088Z,100142.22
2023-04-23T09:51:47.945Z,100131.38
2023-04-23T09:54:50.887Z,100136.44
2023-04-23T09:57:53.455Z,100133.88
2023-04-23T10:01:07.619Z,100122.41
2023-04-23T10:04:12.853Z,100138.22
2023-04-23T10:07:20.055Z,100131.00
2023-04-23T10:10:23.532Z,100128.47
2023-04-23T10:13:26.888Z,100107.19
2023-04-23T10:16:38.569Z,100119.69
2023-04-23T10:19:50.071Z,100105.66
2023-04-23T10:22:54.817Z,100102.63
2023-04-23T10:25:59.201Z,100109.25
2023-04-23T10:29:04.286Z,100109.59
2023-04-23T10:32:07.263Z,100100.53
2023-04-23T10:35:10.706Z,100105.47
2023-04-23T10:38:14.181Z,100086.84
2023-04-23T10:41:20.719Z,100092.72
2023-04-23T10:44:42.248Z,100103.12
2023-04-23T10:47:46.477Z,100088.84
2023-04-23T10:51:09.803Z,100082.44
2023-04-23T10:54:21.454Z,100095.09
2023-04-23T10:57:24.108Z,100084.50
2023-04-23T11:00:28.178Z,100078.47
2023-04-23T11:03:43.955Z,100074.13
2023-04-23T11:06:51.226Z,100076.47
2023-04-23T11:09:54.205Z,100064.88
2023-04-23T11:12:56.813Z,100071.03
2023-04-23T11:16:21.929Z,100080.47
2023-04-23T11:19:24.712Z,100089.22
2023-04-23T11:22:35.787Z,100060.41
2023-04-23T11:25:42.210Z,100062.28
2023-04-23T11:28:45.162Z,100062.88
2023-04-23T11:32:01.754Z,100048.16
2023-04-23T11:35:07.662Z,100059.78
2023-04-23T11:38:11.202Z,100063.25
2023-04-23T11:41:13.930Z,100044.69
2023-04-23T11:44:16.661Z,100065.69
2023-04-23T11:47:19.272Z,100050.47
2023-04-23T11:50:33.692Z,100059.09
2023-04-23T11:53:36.478Z,100047.16
2023-04-23T11:56:40.050Z,100049.47
2023-04-23T11:59:42.714Z,100039.69
2023-04-23T12:03:00.003Z,100037.44
2023-04-23T12:06:03.066Z,100020.69
2023-04-23T12:09:05.974Z,100020.91
2023-04-23T12:12:08.716Z,100035.50
2023-04-23T12:15:11.501Z,100017.38
2023-04-23T12:18:14.219Z,100021.94
2023-04-23T12:21:18.879Z,100025.16
2023-04-23T12:24:26.185Z,100020.03
2023-04-23T12:27:30.873Z,100019.53
2023-04-23T12:30:42.281Z,100013.81
2023-04-23T12:33:44.681Z,100007.47
2023-04-23T12:36:55.366Z,100013.66
2023-04-23T12:39:59.642Z,99997.81
2023-04-23T12:43:02.582Z,100005.50
2023-04-23T12:46:04.922Z,99990.50
2023-04-23T12:49:07.567Z,99998.25
2023-04-23T12:52:12.108Z,99985.53
2023-04-23T12:55:16.248Z,99982.78
2023-04-23T12:58:18.686Z,99987.06
2023-04-23T13:01:21.533Z,99978.13
2023-04-23T13:04:23.888Z,99984.88
2023-04-23T13:07:26.670Z,99973.09
2023-04-23T13:10:30.973Z,99974.44
2023-04-23T13:13:33.692Z,99958.06
2023-04-23T13:16:36.759Z,99972.97
2023-04-23T13:19:40.549Z,99968.78
2023-04-23T13:22:43.074Z,99956.28
2023-04-23T13:25:45.752Z,99952.28
2023-04-23T13:28:48.125Z,99954.63
2023-04-23T13:31:51.234Z,99944.97
2023-04-23T13:34:53.732Z,99951.38
2023-04-23T13:37:56.319Z,99933.13
2023-04-23T13:40:58.713Z,99932.59
2023-04-23T13:44:01.340Z,99908.81
2023-04-23T13:47:04.081Z,99922.28
2023-04-23T13:50:07.469Z,99918.63
2023-04-23T13:53:10.851Z,99920.53
2023-04-23T13:56:13.650Z,99922.06
2023-04-23T13:59:19.811Z,99900.97
2023-04-23T14:02:24.123Z,99905.19
2023-04-23T14:05:26.930Z,99910.91
2023-04-23T14:08:29.328Z,99903.59
2023-04-23T14:11:32.052Z,99905.25
2023-04-23T14:14:34.511Z,99889.78
2023-04-23T14:17:39.228Z,99893.00
2023-04-23T14:20:42.114Z,99884.06
2023-04-23T14:23:45.846Z,99899.47
2023-04-23T14:26:50.068Z,99892.16
2023-04-23T14:29:56.004Z,99889.75
2023-04-23T14:32:58.498Z,99890.50
2023-04-23T14:36:01.252Z,99871.44
2023-04-23T14:39:05.479Z,99883.09
2023-04-23T14:42:08.226Z,99890.16
2023-04-23T14:45:11.109Z,99883.75
2023-04-23T14:48:13.773Z,99880.41
2023-04-23T14:51:16.094Z,99876.09
2023-04-23T14:54:18.971Z,99859.41
2023-04-23T14:57:21.898Z,99875.94
2023-04-23T15:00:26.547Z,99860.41
2023-04-23T15:03:29.052Z,99866.72
2023-04-23T15:06:31.788Z,99849.66
2023-04-23T15:09:34.184Z,99863.97
2023-04-23T15:12:50.814Z,99864.28
2023-04-23T15:16:00.170Z,99861.78
2023-04-23T15:19:10.261Z,99864.81
2023-04-23T15:22:12.618Z,99853.69
2023-04-23T15:25:16.568Z,99862.91
2023-04-23T15:28:18.998Z,99863.28
2023-04-23T15:31:21.614Z,99857.81
2023-04-23T15:34:24.428Z,99860.38
2023-04-23T15:37:28.049Z,99848.91
2023-04-23T15:40:30.685Z,99853.81
2023-04-23T15:43:33.506Z,99834.72
2023-04-23T15:46:35.802Z,99845.53
2023-04-23T15:49:38.443Z,99838.22
2023-04-23T15:52:41.809Z,99828.59
2023-04-23T15:55:44.499Z,99842.84
2023-04-23T15:58:46.930Z,99836.22
2023-04-23T16:01:49.724Z,99838.53
2023-04-23T16:04:52.677Z,99835.38
2023-04-23T16:07:55.062Z,99826.78
2023-04-23T16:10:58.327Z,99825.09
2023-04-23T16:14:00.761Z,99820.63
2023-04-23T16:17:03.501Z,99811.72
2023-04-23T16:20:06.583Z,99820.25
2023-04-23T16:23:09.304Z,99822.28
2023-04-23T16:26:11.653Z,99826.22
2023-04-23T16:29:22.009Z,99822.94
2023-04-23T16:32:25.530Z,99820.44
2023-04-23T16:35:28.218Z,99820.38
2023-04-23T16:38:30.636Z,99811.56
2023-04-23T16:41:33.687Z,99811.09
2023-04-23T16:44:36.122Z,99810.22
2023-04-23T16:47:38.970Z,99813.72
2023-04-23T16:50:42.822Z,99814.03
2023-04-23T16:53:45.495Z,99803.94
2023-04-23T16:56:47.852Z,99803.81
2023-04-23T16:59:51.991Z,99792.81
2023-04-23T17:02:55.123Z,99802.59
2023-04-23T17:06:28.553Z,99798.13
2023-04-23T17:09:31.745Z,99802.87
2023-04-23T17:12:34.409Z,99802.41
2023-04-23T17:18:39.291Z,99796.16
2023-04-23T17:21:42.368Z,99789.63
2023-04-23T17:24:45.332Z,99790.78
2023-04-23T17:27:47.806Z,99799.94
2023-04-23T17:30:50.643Z,99793.81
2023-04-23T17:33:54.233Z,99794.87
2023-04-23T17:36:57.026Z,99790.00
2023-04-23T17:39:59.409Z,99781.31
2023-04-23T17:43:02.045Z,99800.28
2023-04-23T17:46:04.772Z,99796.16
2023-04-23T17:49:08.115Z,99780.19
2023-04-23T17:52:10.604Z,99798.44
2023-04-23T17:55:13.643Z,99807.56
2023-04-23T17:58:16.543Z,99804.25
2023-04-23T18:01:19.411Z,99789.91
2023-04-23T18:04:23.074Z,99806.44
2023-04-23T18:07:25.643Z,99792.16
2023-04-23T18:10:28.921Z,99793.22
2023-04-23T18:13:31.386Z,99796.78
2023-04-23T18:16:34.071Z,99804.88
2023-04-23T18:19:37.220Z,99817.25
2023-04-23T18:22:42.244Z,99810.22
2023-04-23T18:25:44.621Z,99805.13
2023-04-23T18:28:47.239Z,99820.06
2023-04-23T18:31:49.620Z,99827.66
2023-04-23T18:34:52.459Z,99829.59
2023-04-23T18:38:02.703Z,99829.81
2023-04-23T18:41:05.612Z,99841.81
2023-04-23T18:44:07.984Z,99833.06
2023-04-23T18:47:10.846Z,99842.41
2023-04-23T18:50:42.029Z,99826.75
2023-04-23T18:53:46.103Z,99848.59
2023-04-23T18:56:49.593Z,99836.22
2023-04-23T18:59:52.402Z,99838.50
2023-04-23T19:02:55.043Z,99846.66
2023-04-23T19:05:57.932Z,99853.41
2023-04-23T19:09:01.510Z,99848.44
2023-04-23T19:12:04.467Z,99842.16
2023-04-23T19:15:07.425Z,99834.06
2023-04-23T19:18:10.129Z,99846.22
2023-04-23T19:21:12.589Z,99833.44
2023-04-23T19:24:15.319Z,99851.69
2023-04-23T19:27:17.820Z,99845.25
2023-04-23T19:30:20.523Z,99852.22
2023-04-23T19:33:23.858Z,99849.53
2023-04-23T19:36:26.513Z,99849.88
2023-04-23T19:39:29.020Z,99852.97
2023-04-23T19:42:32.653Z,99823.50
2023-04-23T19:45:35.585Z,99851.63
2023-04-23T19:48:38.465Z,99841.75
2023-04-23T19:51:40.904Z,99847.53
2023-04-23T19:54:48.934Z,99846.63
2023-04-23T19:57:51.391Z,99844.56
2023-04-23T20:00:54.186Z,99843.19
2023-04-23T20:03:57.103Z,99837.81
2023-04-23T20:06:59.724Z,99841.34
2023-04-23T20:10:02.409Z,99846.06
2023-04-23T20:13:04.819Z,99839.47
2023-04-23T20:16:08.256Z,99824.66
2023-04-23T20:19:12.641Z,99839.34
2023-04-23T20:22:15.663Z,99816.47
2023-04-23T20:25:19.252Z,99829.19
2023-04-23T20:28:23.344Z,99826.75
2023-04-23T20:31:25.863Z,99826.06
2023-04-23T20:34:28.546Z,99804.03
2023-04-23T20:37:31.016Z,99803.91
2023-04-23T20:40:34.560Z,99822.69
2023-04-23T20:43:38.778Z,99807.91
2023-04-23T20:46:41.450Z,99807.06
2023-04-23T20:49:44.084Z,99820.88
2023-04-23T20:52:46.957Z,99815.50
2023-04-23T20:55:49.350Z,99814.94
2023-04-23T20:58:52.069Z,99800.06
2023-04-23T21:01:54.562Z,99812.72
2023-04-23T21:04:57.386Z,99817.41
2023-04-23T21:07:59.725Z,99798.72
2023-04-23T21:11:02.855Z,99800.38
2023-04-23T21:14:08.855Z,99808.06
2023-04-23T21:17:11.712Z,99809.84
2023-04-23T21:20:14.287Z,99800.97
2023-04-23T21:23:16.986Z,99783.81
2023-04-23T21:26:19.607Z,99798.25
2023-04-23T21:29:22.299Z,99801.88
2023-04-23T21:32:25.786Z,99798.03
2023-04-23T21:35:28.470Z,99790.66
2023-04-23T21:38:30.862Z,99792.19
2023-04-23T21:41:33.633Z,99791.12
2023-04-23T21:44:36.771Z,99771.63
2023-04-23T21:47:41.159Z,99783.50
2023-04-23T21:50:43.485Z,99784.44
2023-04-23T21:53:46.102Z,99773.28
2023-04-23T21:56:48.562Z,99767.44
2023-04-23T21:59:51.396Z,99767.06
2023-04-23T22:02:56.687Z,99758.78
2023-04-23T22:06:01.357Z,99768.94
2023-04-23T22:09:04.353Z,99765.34
2023-04-23T22:12:08.730Z,99740.59
2023-04-23T22:15:13.549Z,99752.81
2023-04-23T22:18:16.230Z,99751.44
2023-04-23T22:21:18.628Z,99748.16
2023-04-23T22:24:21.356Z,99747.94
2023-04-23T22:27:23.699Z,99725.50
2023-04-23T22:30:26.335Z,99746.66
2023-04-23T22:33:29.430Z,99740.81
2023-04-23T22:36:32.351Z,99741.72
2023-04-23T22:39:34.789Z,99745.62
2023-04-23T22:42:37.762Z,99723.56
2023-04-23T22:45:40.338Z,99731.66
2023-04-23T22:48:44.520Z,99729.28
2023-04-23T22:51:46.805Z,99725.81
2023-04-23T22:54:49.486Z,99726.63
2023-04-23T22:57:51.973Z,99705.78
2023-04-23T23:00:55.575Z,99724.84
2023-04-23T23:03:58.159Z,99700.00
2023-04-23T23:07:01.431Z,99710.72
2023-04-23T23:10:03.937Z,99709.34
2023-04-23T23:13:06.604Z,99700.00
2023-04-23T23:16:09.202Z,99685.44
2023-04-23T23:19:12.675Z,99686.34
2023-04-23T23:22:15.061Z,99695.44
2023-04-23T23:25:17.787Z,99689.72
2023-04-23T23:28:20.295Z,99685.53
2023-04-23T23:31:26.029Z,99683.66
2023-04-23T23:34:28.546Z,99673.84
2023-04-23T23:37:31.193Z,99677.00
2023-04-23T23:40:33.668Z,99669.97
2023-04-23T23:43:36.274Z,99677.56
2023-04-23T23:46:39.415Z,99678.81
2023-04-23T23:49:42.272Z,99674.75
2023-04-23T23:52:44.799Z,99650.75
2023-04-23T23:55:47.342Z,99672.34
2023-04-23T23:58:49.631Z,99670.38
